This demonstration page uses our WeatherBlox Daily Observations layout. Learn more.

Left ArrowRight Arrow

36.17497, -115.13722

Hourly Observations for March 13, 2016

Temp ( °F °C ) Dew Point ( °F °C ) Humidity (%) Winds ( mph kmh ) Pressure ( in mb ) Visibility ( mi km ) Precip ( " mm )
12:53 am 00:53 Clear 54 12.2 31 -0.6 42 42 SE 7 11 30.04 1017 10 16.0934 0 0
1:53 am 01:53 Clear 52 11.1 32 0 47 47 SE 5 7 30.02 1017 10 16.0934 0 0
3:53 am 03:53 Clear 52 11.1 32 0 47 47 ESE 5 7 30.01 1016 10 16.0934 0 0
4:53 am 04:53 Clear 52 11.1 31 -0.6 45 45 E 5 7 30.02 1017 10 16.0934 0 0
5:53 am 05:53 Clear 51 10.6 31 -0.6 46 46 ESE 7 11 30.01 1016 10 16.0934 0 0
6:53 am 06:53 Clear 51 10.6 33 0.6 50 50 ESE 5 7 30.03 1017 10 16.0934 0 0
7:53 am 07:53 Sunny 52 11.1 31 -0.6 45 45 ESE 7 11 30.04 1017 10 16.0934 0 0
8:53 am 08:53 Sunny 54 12.2 33 0.6 45 45 ESE 8 13 30.05 1018 10 16.0934 0 0
9:53 am 09:53 Sunny 56 13.3 32 0 40 40 Calm 30.06 1018 10 16.0934 0 0
10:53 am 10:53 Sunny 59 15 31 -0.6 35 35 ESE 3 6 30.05 1018 10 16.0934 0 0
11:53 am 11:53 Sunny 60 15.6 31 -0.6 33 33 SSE 7 11 30.03 1017 10 16.0934 0 0
12:53 pm 12:53 Sunny 61 16.1 30 -1.1 31 31 Calm 30.02 1017 10 16.0934 0 0
1:53 pm 13:53 Sunny 64 17.8 31 -0.6 29 29 VRB 3 6 29.98 1015 10 16.0934 0 0
2:53 pm 14:53 Sunny 67 19.4 31 -0.6 26 26 SW 9 15 29.93 1014 10 16.0934 0 0
3:53 pm 15:53 Sunny 68 20 31 -0.6 25 25 SW 10 17 29.92 1013 10 16.0934 0 0
4:53 pm 16:53 Sunny 68 20 33 0.6 27 27 SW 21 33 29.89 1012 10 16.0934 0 0
5:53 pm 17:53 Sunny 67 19.4 35 1.7 31 31 SW 12 19 29.9 1012 10 16.0934 0 0
6:53 pm 18:53 Clear 66 18.9 35 1.7 32 32 SW 8 13 29.89 1012 10 16.0934 0 0
7:53 pm 19:53 Clear 63 17.2 36 2.2 37 37 SSW 13 20 29.9 1012 10 16.0934 0 0
8:53 pm 20:53 Clear 62 16.7 36 2.2 38 38 SSW 15 24 29.9 1013 10 16.0934 0 0
9:53 pm 21:53 Clear 62 16.7 37 2.8 40 40 SSW 17 28 29.9 1013 10 16.0934 0 0
10:53 pm 22:53 Clear 62 16.7 37 2.8 40 40 WSW 10 17 29.89 1012 10 16.0934 0 0
11:53 pm 23:53 Clear 61 16.1 38 3.3 43 43 W 16 26 29.88 1012 10 16.0934 0 0

Powered by AerisWeather